createdAt,value
2023-03-18T00:02:07.460Z,11.42
2023-03-18T00:04:40.758Z,11.04
2023-03-18T00:07:12.608Z,11.13
2023-03-18T00:09:44.296Z,11.27
2023-03-18T00:12:16.110Z,11.23
2023-03-18T00:14:47.732Z,11.14
2023-03-18T00:17:19.453Z,11.56
2023-03-18T00:19:51.029Z,11.45
2023-03-18T00:22:22.686Z,11.25
2023-03-18T00:24:54.947Z,11.40
2023-03-18T00:27:26.796Z,11.21
2023-03-18T00:29:58.438Z,11.16
2023-03-18T00:32:30.146Z,11.53
2023-03-18T00:35:02.137Z,11.13
2023-03-18T00:37:34.386Z,11.13
2023-03-18T00:40:12.128Z,11.54
2023-03-18T00:42:44.829Z,11.66
2023-03-18T00:45:17.524Z,11.58
2023-03-18T00:47:49.592Z,11.77
2023-03-18T00:50:21.294Z,11.80
2023-03-18T00:52:52.918Z,11.91
2023-03-18T00:55:24.809Z,12.10
2023-03-18T00:57:56.876Z,12.56
2023-03-18T01:00:29.034Z,12.24
2023-03-18T01:03:01.287Z,12.18
2023-03-18T01:05:37.383Z,12.31
2023-03-18T01:08:09.041Z,12.12
2023-03-18T01:10:40.655Z,12.40
2023-03-18T01:13:15.110Z,12.44
2023-03-18T01:15:46.756Z,12.50
2023-03-18T01:18:18.550Z,12.27
2023-03-18T01:20:50.864Z,12.30
2023-03-18T01:23:26.120Z,12.12
2023-03-18T01:25:58.191Z,11.93
2023-03-18T01:28:30.239Z,11.98
2023-03-18T01:31:07.308Z,12.23
2023-03-18T01:33:39.044Z,12.19
2023-03-18T01:36:11.117Z,12.28
2023-03-18T01:38:42.983Z,11.32
2023-03-18T01:41:17.569Z,11.54
2023-03-18T01:43:49.357Z,11.73
2023-03-18T01:46:33.208Z,11.65
2023-03-18T01:49:17.791Z,11.61
2023-03-18T01:52:09.424Z,11.60
2023-03-18T01:54:55.482Z,11.34
2023-03-18T01:57:30.171Z,11.40
2023-03-18T02:00:05.009Z,11.40
2023-03-18T02:02:48.619Z,11.26
2023-03-18T02:07:56.126Z,11.40
2023-03-18T02:10:31.364Z,11.22
2023-03-18T02:13:07.949Z,11.13
2023-03-18T02:16:01.036Z,11.06
2023-03-18T02:18:41.100Z,11.09
2023-03-18T02:21:36.108Z,10.73
2023-03-18T02:24:07.810Z,10.93
2023-03-18T02:26:59.605Z,10.40
2023-03-18T02:29:38.710Z,10.61
2023-03-18T02:32:19.101Z,10.30
2023-03-18T02:34:50.765Z,10.37
2023-03-18T02:37:22.444Z,10.29
2023-03-18T02:39:55.033Z,10.76
2023-03-18T02:42:31.868Z,10.64
2023-03-18T02:45:19.451Z,10.53
2023-03-18T02:48:10.452Z,10.84
2023-03-18T02:50:42.527Z,10.60
2023-03-18T02:53:14.860Z,10.59
2023-03-18T02:55:49.023Z,10.39
2023-03-18T02:58:21.180Z,10.38
2023-03-18T03:00:58.560Z,10.35
2023-03-18T03:03:30.415Z,10.33
2023-03-18T03:06:02.697Z,10.05
2023-03-18T03:08:35.654Z,10.30
2023-03-18T03:11:09.765Z,9.81
2023-03-18T03:13:43.919Z,9.83
2023-03-18T03:16:17.862Z,10.04
2023-03-18T03:18:49.712Z,9.68
2023-03-18T03:21:21.285Z,9.86
2023-03-18T03:23:53.864Z,9.85
2023-03-18T03:26:26.192Z,9.41
2023-03-18T03:28:58.181Z,9.72
2023-03-18T03:31:29.865Z,9.86
2023-03-18T03:34:02.367Z,9.63
2023-03-18T03:36:33.941Z,9.84
2023-03-18T03:39:05.577Z,9.54
2023-03-18T03:41:40.150Z,9.56
2023-03-18T03:44:11.805Z,9.64
2023-03-18T03:46:43.496Z,9.67
2023-03-18T03:49:15.161Z,9.65
2023-03-18T03:51:46.805Z,9.59
2023-03-18T03:54:18.808Z,9.50
2023-03-18T03:56:50.491Z,9.65
2023-03-18T03:59:22.317Z,9.46
2023-03-18T04:02:11.575Z,9.27
2023-03-18T04:04:44.214Z,9.07
2023-03-18T04:07:25.044Z,9.39
2023-03-18T04:09:56.962Z,9.43
2023-03-18T04:12:29.068Z,9.63
2023-03-18T04:15:05.433Z,9.43
2023-03-18T04:17:37.582Z,9.34
2023-03-18T04:20:09.998Z,9.06
2023-03-18T04:22:41.894Z,9.09
2023-03-18T04:25:15.930Z,9.36
2023-03-18T04:27:47.731Z,9.50
2023-03-18T04:30:21.321Z,9.20
2023-03-18T04:33:02.223Z,9.33
2023-03-18T04:35:36.155Z,9.32
2023-03-18T04:38:08.396Z,9.40
2023-03-18T04:40:40.957Z,9.33
2023-03-18T04:43:12.537Z,9.15
2023-03-18T04:45:44.283Z,8.93
2023-03-18T04:48:17.253Z,9.11
2023-03-18T04:50:50.459Z,9.13
2023-03-18T04:53:28.425Z,9.01
2023-03-18T04:56:00.140Z,8.89
2023-03-18T04:58:39.578Z,9.00
2023-03-18T05:01:15.418Z,8.78
2023-03-18T05:03:47.659Z,8.70
2023-03-18T05:06:25.268Z,8.37
2023-03-18T05:09:03.566Z,8.89
2023-03-18T05:11:38.136Z,8.52
2023-03-18T05:14:19.287Z,8.33
2023-03-18T05:16:53.222Z,8.48
2023-03-18T05:19:25.086Z,8.93
2023-03-18T05:22:04.818Z,8.86
2023-03-18T05:24:36.479Z,8.77
2023-03-18T05:27:10.704Z,8.70
2023-03-18T05:29:46.043Z,8.37
2023-03-18T05:32:22.385Z,8.75
2023-03-18T05:35:00.239Z,8.45
2023-03-18T05:37:33.067Z,8.40
2023-03-18T05:40:10.856Z,8.27
2023-03-18T05:42:55.376Z,8.52
2023-03-18T05:45:34.482Z,8.48
2023-03-18T05:48:07.107Z,8.61
2023-03-18T05:50:47.225Z,8.68
2023-03-18T05:53:23.506Z,8.60
2023-03-18T05:56:01.401Z,8.95
2023-03-18T05:58:34.636Z,8.73
2023-03-18T06:01:25.188Z,8.90
2023-03-18T06:03:57.745Z,10.61
2023-03-18T06:06:29.327Z,11.91
2023-03-18T06:09:00.961Z,12.81
2023-03-18T06:11:33.110Z,13.68
2023-03-18T06:14:07.273Z,14.03
2023-03-18T06:16:39.485Z,12.88
2023-03-18T06:19:11.241Z,12.31
2023-03-18T06:21:42.841Z,12.29
2023-03-18T06:24:14.476Z,11.96
2023-03-18T06:26:46.312Z,11.77
2023-03-18T06:29:18.270Z,12.06
2023-03-18T06:31:49.983Z,11.78
2023-03-18T06:34:26.543Z,12.11
2023-03-18T06:36:59.780Z,12.87
2023-03-18T06:39:31.921Z,14.49
2023-03-18T06:42:07.466Z,16.86
2023-03-18T06:45:03.347Z,18.15
2023-03-18T06:47:47.298Z,18.81
2023-03-18T06:50:19.094Z,19.63
2023-03-18T06:52:51.014Z,20.67
2023-03-18T06:55:29.020Z,22.58
2023-03-18T06:58:02.689Z,19.31
2023-03-18T07:00:44.568Z,18.11
2023-03-18T07:03:22.307Z,17.05
2023-03-18T07:05:55.574Z,16.60
2023-03-18T07:08:27.326Z,15.96
2023-03-18T07:10:59.205Z,15.98
2023-03-18T07:13:31.866Z,16.00
2023-03-18T07:16:03.949Z,15.91
2023-03-18T07:18:35.783Z,15.08
2023-03-18T07:21:07.590Z,15.38
2023-03-18T07:23:39.334Z,14.61
2023-03-18T07:26:11.539Z,15.59
2023-03-18T07:28:43.510Z,15.93
2023-03-18T07:31:16.148Z,17.33
2023-03-18T07:33:49.390Z,17.77
2023-03-18T07:36:20.972Z,17.95
2023-03-18T07:38:52.655Z,19.49
2023-03-18T07:41:24.254Z,20.73
2023-03-18T07:43:55.822Z,20.43
2023-03-18T07:46:27.623Z,20.83
2023-03-18T07:48:59.342Z,22.31
2023-03-18T07:51:31.092Z,24.10
2023-03-18T07:54:04.066Z,23.88
2023-03-18T07:56:35.664Z,25.11
2023-03-18T07:59:07.258Z,25.38
2023-03-18T08:01:38.873Z,25.95
2023-03-18T08:04:11.321Z,26.52
2023-03-18T08:06:42.878Z,26.20
2023-03-18T08:09:14.496Z,26.13
2023-03-18T08:11:46.086Z,25.48
2023-03-18T08:14:17.765Z,24.76
2023-03-18T08:16:49.524Z,24.79
2023-03-18T08:19:21.116Z,24.28
2023-03-18T08:21:52.752Z,23.79
2023-03-18T08:24:24.619Z,23.73
2023-03-18T08:26:56.662Z,22.48
2023-03-18T08:29:28.447Z,22.06
2023-03-18T08:32:00.131Z,22.08
2023-03-18T08:34:31.802Z,22.27
2023-03-18T08:37:03.972Z,22.07
2023-03-18T08:39:35.581Z,22.53
2023-03-18T08:42:07.184Z,22.43
2023-03-18T08:44:38.967Z,22.60
2023-03-18T08:47:10.621Z,22.64
2023-03-18T08:49:42.253Z,22.72
2023-03-18T08:52:13.887Z,22.14
2023-03-18T08:54:45.543Z,22.66
2023-03-18T08:57:19.022Z,21.72
2023-03-18T08:59:51.247Z,20.16
2023-03-18T09:02:22.904Z,19.03
2023-03-18T09:04:55.221Z,18.75
2023-03-18T09:07:26.811Z,18.69
2023-03-18T09:09:58.510Z,18.81
2023-03-18T09:12:30.163Z,18.64
2023-03-18T09:15:01.848Z,19.08
2023-03-18T09:17:50.909Z,19.37
2023-03-18T09:20:25.493Z,17.84
2023-03-18T09:22:57.146Z,17.86
2023-03-18T09:25:28.766Z,18.14
2023-03-18T09:28:00.658Z,18.94
2023-03-18T09:30:32.603Z,18.74
2023-03-18T09:33:04.632Z,19.22
2023-03-18T09:35:36.605Z,20.11
2023-03-18T09:38:12.727Z,19.84
2023-03-18T09:41:04.755Z,18.24
2023-03-18T09:44:01.936Z,19.34
2023-03-18T09:46:45.517Z,20.39
2023-03-18T09:50:04.647Z,21.20
2023-03-18T09:52:46.711Z,21.02
2023-03-18T09:55:37.153Z,20.35
2023-03-18T09:58:23.200Z,20.07
2023-03-18T10:01:03.341Z,20.57
2023-03-18T10:03:45.915Z,20.19
2023-03-18T10:06:21.380Z,19.43
2023-03-18T10:09:07.933Z,19.06
2023-03-18T10:11:41.745Z,18.64
2023-03-18T10:14:16.157Z,18.97
2023-03-18T10:17:18.363Z,17.91
2023-03-18T10:20:18.424Z,17.85
2023-03-18T10:23:06.095Z,18.13
2023-03-18T10:25:58.906Z,18.02
2023-03-18T10:29:02.282Z,16.87
2023-03-18T10:32:24.162Z,17.06
2023-03-18T10:35:29.883Z,17.52
2023-03-18T10:38:16.673Z,17.58
2023-03-18T10:40:48.451Z,17.45
2023-03-18T10:43:29.406Z,17.30
2023-03-18T10:46:06.858Z,18.19
2023-03-18T10:48:45.553Z,18.26
2023-03-18T10:51:28.178Z,18.06
2023-03-18T10:54:14.703Z,18.14
2023-03-18T10:56:46.666Z,18.10
2023-03-18T10:59:21.881Z,18.41
2023-03-18T11:01:59.604Z,17.62
2023-03-18T11:04:49.455Z,17.97
2023-03-18T11:07:28.436Z,17.50
2023-03-18T11:10:17.746Z,17.21
2023-03-18T11:12:49.374Z,16.85
2023-03-18T11:15:21.141Z,17.19
2023-03-18T11:17:58.041Z,18.31
2023-03-18T11:20:36.640Z,17.80
2023-03-18T11:23:18.845Z,17.12
2023-03-18T11:25:55.502Z,17.06
2023-03-18T11:28:29.618Z,16.17
2023-03-18T11:31:05.797Z,15.77
2023-03-18T11:33:37.485Z,16.11
2023-03-18T11:36:16.664Z,15.87
2023-03-18T11:39:06.247Z,15.97
2023-03-18T11:41:38.017Z,15.97
2023-03-18T11:44:33.025Z,16.58
2023-03-18T11:47:17.821Z,16.30
2023-03-18T11:49:49.607Z,16.87
2023-03-18T11:52:57.947Z,16.42
2023-03-18T11:56:14.708Z,16.50
2023-03-18T11:59:00.692Z,16.23
2023-03-18T12:01:38.408Z,16.47
2023-03-18T12:04:40.855Z,15.76
2023-03-18T12:07:38.523Z,15.68
2023-03-18T12:10:26.798Z,15.52
2023-03-18T12:13:19.798Z,15.12
2023-03-18T12:16:12.924Z,15.19
2023-03-18T12:18:59.348Z,15.24
2023-03-18T12:21:43.739Z,15.94
2023-03-18T12:25:05.793Z,15.85
2023-03-18T12:28:15.093Z,15.51
2023-03-18T12:31:19.602Z,16.06
2023-03-18T12:33:55.329Z,16.20
2023-03-18T12:36:53.335Z,16.60
2023-03-18T12:39:57.736Z,16.28
2023-03-18T12:42:55.472Z,16.39
2023-03-18T12:45:40.714Z,16.98
2023-03-18T12:48:44.247Z,16.96
2023-03-18T12:51:27.840Z,16.93
2023-03-18T12:54:16.256Z,17.64
2023-03-18T12:56:55.572Z,17.83
2023-03-18T12:59:39.682Z,18.17
2023-03-18T13:02:38.514Z,18.42
2023-03-18T13:05:23.113Z,18.73
2023-03-18T13:08:21.221Z,19.27
2023-03-18T13:11:25.993Z,19.06
2023-03-18T13:14:05.823Z,19.09
2023-03-18T13:16:39.610Z,18.33
2023-03-18T13:19:11.277Z,18.39
2023-03-18T13:21:49.952Z,19.23
2023-03-18T13:24:46.107Z,17.90
2023-03-18T13:27:32.337Z,17.51
2023-03-18T13:30:42.750Z,18.11
2023-03-18T13:33:59.562Z,18.23
2023-03-18T13:36:52.712Z,17.95
2023-03-18T13:39:34.555Z,16.91
2023-03-18T13:42:22.927Z,16.36
2023-03-18T13:45:00.630Z,17.00
2023-03-18T13:47:36.945Z,17.88
2023-03-18T13:50:20.488Z,17.60
2023-03-18T13:52:56.477Z,17.54
2023-03-18T13:55:33.288Z,17.83
2023-03-18T13:58:05.245Z,17.15
2023-03-18T14:00:41.866Z,17.69
2023-03-18T14:03:18.601Z,16.69
2023-03-18T14:06:11.306Z,16.62
2023-03-18T14:08:42.882Z,16.69
2023-03-18T14:11:17.437Z,16.54
2023-03-18T14:13:53.674Z,15.75
2023-03-18T14:16:30.237Z,15.87
2023-03-18T14:19:28.286Z,16.85
2023-03-18T14:22:22.345Z,16.72
2023-03-18T14:25:18.447Z,16.73
2023-03-18T14:27:59.406Z,17.29
2023-03-18T14:30:30.960Z,17.34
2023-03-18T14:33:04.392Z,17.59
2023-03-18T14:35:51.969Z,16.45
2023-03-18T14:38:30.755Z,16.00
2023-03-18T14:41:21.523Z,15.88
2023-03-18T14:44:06.433Z,15.63
2023-03-18T14:46:41.845Z,16.01
2023-03-18T14:49:33.674Z,16.34
2023-03-18T14:52:33.179Z,16.73
2023-03-18T14:55:14.096Z,16.55
2023-03-18T14:57:45.747Z,16.82
2023-03-18T15:00:19.767Z,16.90
2023-03-18T15:03:06.676Z,16.93
2023-03-18T15:05:42.876Z,16.57
2023-03-18T15:08:22.426Z,15.92
2023-03-18T15:10:56.405Z,15.66
2023-03-18T15:13:28.202Z,16.12
2023-03-18T15:16:04.830Z,16.34
2023-03-18T15:18:39.132Z,16.20
2023-03-18T15:21:20.217Z,15.68
2023-03-18T15:23:57.074Z,15.41
2023-03-18T15:26:57.407Z,15.31
2023-03-18T15:29:32.657Z,15.30
2023-03-18T15:32:10.108Z,15.39
2023-03-18T15:34:45.370Z,15.40
2023-03-18T15:37:39.089Z,16.00
2023-03-18T15:40:28.869Z,16.07
2023-03-18T15:43:16.171Z,16.40
2023-03-18T15:45:54.308Z,16.13
2023-03-18T15:48:50.498Z,16.34
2023-03-18T15:51:46.056Z,16.57
2023-03-18T15:54:24.805Z,16.47
2023-03-18T15:56:58.960Z,16.46
2023-03-18T15:59:32.509Z,16.53
2023-03-18T16:02:15.495Z,16.63
2023-03-18T16:04:47.088Z,16.54
2023-03-18T16:07:21.092Z,16.66
2023-03-18T16:09:52.643Z,16.07
2023-03-18T16:12:25.897Z,15.81
2023-03-18T16:14:58.018Z,15.81
2023-03-18T16:17:29.833Z,15.67
2023-03-18T16:20:02.307Z,15.67
2023-03-18T16:22:34.580Z,15.94
2023-03-18T16:25:06.454Z,16.04
2023-03-18T16:27:41.017Z,15.83
2023-03-18T16:30:25.671Z,16.00
2023-03-18T16:32:59.183Z,16.05
2023-03-18T16:35:34.154Z,15.95
2023-03-18T16:38:06.494Z,15.56
2023-03-18T16:40:38.162Z,15.29
2023-03-18T16:43:22.343Z,14.98
2023-03-18T16:45:59.489Z,14.38
2023-03-18T16:48:31.799Z,14.12
2023-03-18T16:51:03.556Z,13.85
2023-03-18T16:53:35.170Z,14.16
2023-03-18T16:56:17.554Z,14.78
2023-03-18T16:58:49.161Z,14.71
2023-03-18T17:01:20.769Z,14.15
2023-03-18T17:03:52.369Z,14.74
2023-03-18T17:06:24.266Z,15.01
2023-03-18T17:08:55.831Z,15.07
2023-03-18T17:11:27.686Z,15.57
2023-03-18T17:14:00.386Z,15.19
2023-03-18T17:16:32.029Z,15.52
2023-03-18T17:19:03.961Z,15.74
2023-03-18T17:21:35.636Z,16.05
2023-03-18T17:24:07.596Z,16.01
2023-03-18T17:26:39.254Z,15.46
2023-03-18T17:29:23.670Z,15.39
2023-03-18T17:31:56.011Z,15.10
2023-03-18T17:34:27.632Z,14.93
2023-03-18T17:36:59.314Z,15.24
2023-03-18T17:39:30.888Z,14.74
2023-03-18T17:42:02.572Z,14.97
2023-03-18T17:44:34.349Z,15.08
2023-03-18T17:47:06.235Z,15.26
2023-03-18T17:49:39.533Z,15.61
2023-03-18T17:52:18.244Z,15.91
2023-03-18T17:54:49.977Z,15.38
2023-03-18T17:57:21.751Z,16.08
2023-03-18T17:59:53.760Z,16.07
2023-03-18T18:02:25.570Z,16.30
2023-03-18T18:04:57.539Z,16.03
2023-03-18T18:07:29.697Z,16.08
2023-03-18T18:10:01.320Z,16.40
2023-03-18T18:12:33.078Z,16.48
2023-03-18T18:15:06.362Z,16.37
2023-03-18T18:17:38.158Z,16.31
2023-03-18T18:20:14.237Z,16.31
2023-03-18T18:22:53.714Z,16.24
2023-03-18T18:25:28.067Z,16.36
2023-03-18T18:27:59.691Z,16.49
2023-03-18T18:30:31.285Z,15.95
2023-03-18T18:33:02.959Z,16.41
2023-03-18T18:35:34.983Z,16.46
2023-03-18T18:38:06.909Z,16.27
2023-03-18T18:40:39.673Z,16.17
2023-03-18T18:43:11.299Z,16.49
2023-03-18T18:45:43.040Z,16.00
2023-03-18T18:48:17.751Z,15.90
2023-03-18T18:50:49.904Z,15.79
2023-03-18T18:53:27.754Z,15.54
2023-03-18T18:56:06.456Z,15.41
2023-03-18T18:58:38.574Z,15.44
2023-03-18T19:01:12.892Z,15.43
2023-03-18T19:03:45.102Z,15.32
2023-03-18T19:06:30.235Z,15.08
2023-03-18T19:09:02.757Z,15.25
2023-03-18T19:11:34.353Z,15.30
2023-03-18T19:14:24.140Z,15.43
2023-03-18T19:16:59.565Z,15.31
2023-03-18T19:19:33.928Z,15.30
2023-03-18T19:22:05.597Z,15.30
2023-03-18T19:24:38.981Z,15.27
2023-03-18T19:27:25.259Z,15.10
2023-03-18T19:30:00.658Z,15.12
2023-03-18T19:32:32.284Z,15.22
2023-03-18T19:35:04.215Z,15.32
2023-03-18T19:37:38.424Z,14.92
2023-03-18T19:40:30.680Z,15.21
2023-03-18T19:43:02.228Z,15.38
2023-03-18T19:45:34.035Z,14.88
2023-03-18T19:48:05.867Z,15.32
2023-03-18T19:50:37.732Z,15.69
2023-03-18T19:53:15.474Z,15.32
2023-03-18T19:55:48.007Z,15.51
2023-03-18T19:58:26.325Z,15.42
2023-03-18T20:00:57.998Z,15.47
2023-03-18T20:03:29.587Z,15.38
2023-03-18T20:06:01.245Z,15.14
2023-03-18T20:08:32.852Z,14.73
2023-03-18T20:11:04.628Z,15.13
2023-03-18T20:13:36.533Z,15.37
2023-03-18T20:16:16.171Z,15.52
2023-03-18T20:18:47.860Z,15.58
2023-03-18T20:21:30.003Z,15.81
2023-03-18T20:24:07.204Z,15.43
2023-03-18T20:26:38.868Z,15.49
2023-03-18T20:29:21.174Z,15.73
2023-03-18T20:31:52.841Z,15.51
2023-03-18T20:34:24.507Z,15.33
2023-03-18T20:36:56.531Z,15.35
2023-03-18T20:39:28.228Z,15.41
2023-03-18T20:42:00.234Z,15.55
2023-03-18T20:44:31.994Z,15.47
2023-03-18T20:47:04.043Z,15.66
2023-03-18T20:49:35.706Z,15.18
2023-03-18T20:52:27.393Z,14.87
2023-03-18T20:54:59.312Z,15.18
2023-03-18T20:57:31.063Z,15.11
2023-03-18T21:00:02.884Z,15.01
2023-03-18T21:02:36.247Z,14.86
2023-03-18T21:05:10.499Z,15.28
2023-03-18T21:07:43.611Z,15.43
2023-03-18T21:10:18.518Z,15.39
2023-03-18T21:12:50.615Z,15.00
2023-03-18T21:15:25.061Z,14.81
2023-03-18T21:17:56.727Z,14.95
2023-03-18T21:20:29.360Z,14.96
2023-03-18T21:23:01.693Z,14.98
2023-03-18T21:25:33.568Z,14.94
2023-03-18T21:28:05.319Z,14.99
2023-03-18T21:30:36.954Z,15.31
2023-03-18T21:33:21.401Z,15.51
2023-03-18T21:35:53.797Z,15.61
2023-03-18T21:38:27.615Z,14.99
2023-03-18T21:41:00.613Z,14.69
2023-03-18T21:43:42.816Z,14.61
2023-03-18T21:46:19.308Z,14.57
2023-03-18T21:48:51.334Z,14.93
2023-03-18T21:51:38.119Z,14.90
2023-03-18T21:54:18.606Z,15.19
2023-03-18T21:56:50.168Z,14.86
2023-03-18T21:59:21.786Z,15.18
2023-03-18T22:01:53.528Z,15.10
2023-03-18T22:04:25.239Z,14.82
2023-03-18T22:06:56.932Z,14.70
2023-03-18T22:09:29.459Z,14.82
2023-03-18T22:12:01.078Z,14.87
2023-03-18T22:14:32.730Z,14.78
2023-03-18T22:17:04.305Z,14.73
2023-03-18T22:19:35.958Z,14.55
2023-03-18T22:22:14.235Z,14.48
2023-03-18T22:24:45.952Z,14.53
2023-03-18T22:27:25.561Z,14.00
2023-03-18T22:29:59.782Z,14.51
2023-03-18T22:32:43.339Z,14.60
2023-03-18T22:35:23.532Z,14.19
2023-03-18T22:37:56.246Z,14.23
2023-03-18T22:40:31.147Z,14.38
2023-03-18T22:43:02.731Z,14.41
2023-03-18T22:45:34.458Z,14.50
2023-03-18T22:48:07.378Z,14.24
2023-03-18T22:50:39.113Z,14.17
2023-03-18T22:53:21.644Z,14.38
2023-03-18T22:55:55.808Z,14.18
2023-03-18T22:58:28.159Z,14.29
2023-03-18T23:00:59.736Z,14.34
2023-03-18T23:03:34.404Z,14.25
2023-03-18T23:06:06.355Z,13.58
2023-03-18T23:08:37.976Z,14.17
2023-03-18T23:11:09.624Z,14.24
2023-03-18T23:13:48.692Z,13.97
2023-03-18T23:16:22.834Z,13.42
2023-03-18T23:18:54.540Z,13.71
2023-03-18T23:21:26.242Z,13.79
2023-03-18T23:23:57.809Z,14.09
2023-03-18T23:26:29.392Z,13.96
2023-03-18T23:29:00.951Z,13.94
2023-03-18T23:31:32.638Z,14.01
2023-03-18T23:34:04.302Z,14.17
2023-03-18T23:36:35.939Z,14.14
2023-03-18T23:39:07.487Z,14.21
2023-03-18T23:41:39.157Z,13.79
2023-03-18T23:44:10.761Z,13.52
2023-03-18T23:46:42.418Z,13.89
2023-03-18T23:49:14.567Z,13.94
2023-03-18T23:51:46.316Z,13.99
2023-03-18T23:54:17.942Z,13.97
2023-03-18T23:56:49.680Z,14.14
2023-03-18T23:59:21.514Z,14.04
